createdAt,value
2022-08-27T00:01:45.082Z,16.35
2022-08-27T00:04:13.335Z,17.67
2022-08-27T00:06:41.439Z,15.55
2022-08-27T00:09:09.626Z,15.13
2022-08-27T00:11:39.429Z,15.00
2022-08-27T00:14:07.588Z,16.95
2022-08-27T00:16:35.702Z,14.38
2022-08-27T00:19:04.085Z,16.77
2022-08-27T00:21:33.182Z,16.52
2022-08-27T00:24:01.545Z,17.73
2022-08-27T00:26:30.121Z,17.20
2022-08-27T00:28:59.800Z,18.33
2022-08-27T00:31:28.035Z,18.65
2022-08-27T00:33:57.279Z,16.40
2022-08-27T00:36:25.695Z,16.75
2022-08-27T00:38:54.435Z,16.25
2022-08-27T00:41:23.562Z,15.68
2022-08-27T00:43:54.433Z,16.90
2022-08-27T00:46:29.169Z,18.13
2022-08-27T00:49:01.432Z,18.75
2022-08-27T00:51:31.528Z,16.77
2022-08-27T00:54:02.531Z,18.83
2022-08-27T00:56:35.742Z,16.90
2022-08-27T00:59:04.962Z,18.05
2022-08-27T01:01:56.143Z,18.65
2022-08-27T01:04:24.480Z,18.60
2022-08-27T01:06:52.537Z,19.65
2022-08-27T01:09:20.760Z,19.88
2022-08-27T01:11:49.978Z,19.30
2022-08-27T01:14:19.930Z,19.17
2022-08-27T01:16:56.946Z,19.73
2022-08-27T01:19:31.357Z,19.48
2022-08-27T01:22:09.116Z,19.80
2022-08-27T01:24:41.908Z,18.30
2022-08-27T01:27:16.779Z,20.58
2022-08-27T01:29:45.222Z,20.27
2022-08-27T01:32:16.458Z,20.35
2022-08-27T01:34:45.126Z,18.67
2022-08-27T01:37:15.162Z,20.02
2022-08-27T01:39:46.057Z,19.48
2022-08-27T01:42:19.004Z,19.88
2022-08-27T01:44:50.345Z,22.13
2022-08-27T01:47:20.066Z,20.95
2022-08-27T01:49:48.560Z,19.70
2022-08-27T01:52:19.104Z,20.50
2022-08-27T01:54:50.874Z,20.38
2022-08-27T01:57:24.055Z,21.35
2022-08-27T01:59:56.208Z,19.38
2022-08-27T02:02:24.560Z,21.55
2022-08-27T02:04:52.745Z,19.13
2022-08-27T02:07:23.640Z,18.83
2022-08-27T02:09:53.202Z,21.38
2022-08-27T02:12:21.320Z,20.15
2022-08-27T02:14:49.408Z,21.13
2022-08-27T02:17:17.813Z,20.63
2022-08-27T02:19:45.895Z,21.67
2022-08-27T02:22:13.962Z,21.65
2022-08-27T02:24:42.171Z,21.98
2022-08-27T02:27:12.240Z,22.27
2022-08-27T02:29:40.234Z,22.30
2022-08-27T02:32:23.868Z,21.80
2022-08-27T02:34:57.211Z,23.25
2022-08-27T02:40:19.673Z,23.35
2022-08-27T02:42:49.191Z,24.23
2022-08-27T02:45:17.923Z,24.17
2022-08-27T02:47:46.051Z,24.52
2022-08-27T02:50:14.634Z,23.27
2022-08-27T02:52:46.285Z,26.83
2022-08-27T02:55:17.304Z,22.80
2022-08-27T02:57:45.686Z,22.90
2022-08-27T03:00:19.101Z,24.02
2022-08-27T03:02:47.227Z,24.55
2022-08-27T03:05:16.981Z,21.98
2022-08-27T03:07:45.300Z,25.27
2022-08-27T03:10:15.540Z,24.85
2022-08-27T03:12:44.312Z,24.55
2022-08-27T03:15:17.168Z,25.92
2022-08-27T03:18:02.923Z,23.83
2022-08-27T03:20:31.694Z,25.80
2022-08-27T03:22:59.906Z,21.92
2022-08-27T03:25:28.149Z,24.95
2022-08-27T03:27:56.165Z,23.38
2022-08-27T03:30:26.594Z,24.90
2022-08-27T03:32:54.895Z,24.25
2022-08-27T03:35:23.665Z,23.92
2022-08-27T03:37:51.752Z,26.10
2022-08-27T03:40:20.661Z,25.35
2022-08-27T03:42:48.815Z,26.40
2022-08-27T03:45:16.858Z,26.20
2022-08-27T03:47:46.301Z,26.33
2022-08-27T03:50:14.479Z,27.05
2022-08-27T03:52:42.503Z,27.13
2022-08-27T03:55:11.307Z,26.83
2022-08-27T03:57:40.135Z,27.40
2022-08-27T04:00:11.703Z,27.95
2022-08-27T04:02:39.948Z,28.25
2022-08-27T04:05:11.091Z,29.08
2022-08-27T04:07:39.778Z,33.17
2022-08-27T04:10:09.884Z,32.75
2022-08-27T04:12:38.162Z,31.20
2022-08-27T04:15:07.716Z,33.75
2022-08-27T04:17:36.239Z,31.88
2022-08-27T04:20:31.777Z,31.42
2022-08-27T04:22:55.332Z,32.90
2022-08-27T04:25:23.618Z,32.60
2022-08-27T04:27:51.687Z,30.10
2022-08-27T04:30:19.771Z,31.52
2022-08-27T04:32:47.826Z,30.67
2022-08-27T04:35:15.943Z,31.45
2022-08-27T04:37:44.089Z,31.77
2022-08-27T04:40:13.830Z,30.98
2022-08-27T04:42:42.324Z,31.83
2022-08-27T04:45:11.382Z,31.60
2022-08-27T04:47:39.461Z,29.08
2022-08-27T04:50:08.103Z,30.40
2022-08-27T04:52:40.751Z,29.63
2022-08-27T04:55:10.287Z,30.35
2022-08-27T04:57:39.703Z,30.05
2022-08-27T05:00:09.446Z,29.05
2022-08-27T05:02:37.451Z,26.55
2022-08-27T05:05:05.848Z,28.85
2022-08-27T05:07:33.892Z,28.15
2022-08-27T05:10:01.956Z,27.85
2022-08-27T05:12:29.978Z,30.08
2022-08-27T05:14:59.421Z,27.48
2022-08-27T05:17:31.259Z,27.20
2022-08-27T05:19:59.538Z,24.25
2022-08-27T05:22:27.768Z,26.52
2022-08-27T05:24:56.229Z,26.67
2022-08-27T05:27:24.909Z,23.90
2022-08-27T05:29:52.949Z,26.63
2022-08-27T05:32:22.454Z,24.98
2022-08-27T05:34:50.639Z,25.27
2022-08-27T05:37:18.695Z,22.98
2022-08-27T05:39:46.738Z,25.92
2022-08-27T05:42:14.886Z,25.05
2022-08-27T05:44:42.913Z,25.30
2022-08-27T05:47:11.469Z,25.60
2022-08-27T05:49:40.964Z,24.15
2022-08-27T05:52:13.501Z,22.85
2022-08-27T05:54:42.100Z,25.45
2022-08-27T05:57:10.156Z,26.92
2022-08-27T05:59:56.051Z,24.73
2022-08-27T06:02:24.389Z,24.90
2022-08-27T06:04:53.980Z,24.42
2022-08-27T06:07:22.133Z,24.90
2022-08-27T06:09:50.184Z,24.67
2022-08-27T06:12:18.261Z,23.08
2022-08-27T06:14:46.323Z,24.00
2022-08-27T06:17:14.371Z,24.15
2022-08-27T06:19:42.795Z,22.77
2022-08-27T06:22:12.590Z,22.27
2022-08-27T06:24:41.971Z,21.98
2022-08-27T06:27:12.795Z,22.00
2022-08-27T06:29:41.574Z,21.83
2022-08-27T06:32:10.554Z,21.85
2022-08-27T06:34:39.258Z,21.85
2022-08-27T06:37:07.816Z,22.50
2022-08-27T06:39:39.356Z,23.15
2022-08-27T06:42:11.534Z,22.88
2022-08-27T06:44:39.720Z,21.02
2022-08-27T06:47:07.987Z,22.52
2022-08-27T06:49:36.109Z,20.52
2022-08-27T06:52:04.618Z,19.75
2022-08-27T06:54:36.012Z,21.17
2022-08-27T06:57:04.044Z,19.92
2022-08-27T06:59:33.384Z,21.60
2022-08-27T07:02:01.450Z,22.05
2022-08-27T07:04:32.173Z,19.80
2022-08-27T07:07:01.347Z,21.08
2022-08-27T07:09:31.968Z,20.23
2022-08-27T07:12:01.826Z,21.40
2022-08-27T07:14:35.480Z,19.45
2022-08-27T07:17:09.792Z,19.17
2022-08-27T07:19:41.072Z,19.63
2022-08-27T07:22:10.862Z,20.73
2022-08-27T07:24:39.198Z,19.63
2022-08-27T07:27:09.057Z,19.25
2022-08-27T07:29:37.155Z,18.40
2022-08-27T07:32:05.503Z,18.73
2022-08-27T07:34:33.547Z,17.98
2022-08-27T07:37:01.605Z,19.98
2022-08-27T07:39:29.587Z,20.60
2022-08-27T07:42:15.461Z,20.90
2022-08-27T07:44:45.078Z,20.50
2022-08-27T07:47:13.664Z,19.05
2022-08-27T07:49:41.772Z,19.73
2022-08-27T07:52:09.868Z,18.65
2022-08-27T07:54:37.997Z,20.80
2022-08-27T07:57:06.182Z,20.77
2022-08-27T07:59:34.317Z,21.00
2022-08-27T08:02:04.163Z,19.67
2022-08-27T08:04:32.283Z,19.95
2022-08-27T08:07:00.390Z,19.13
2022-08-27T08:09:30.587Z,21.00
2022-08-27T08:11:58.646Z,20.17
2022-08-27T08:14:26.784Z,20.95
2022-08-27T08:16:54.890Z,20.00
2022-08-27T08:19:25.016Z,18.63
2022-08-27T08:21:59.405Z,19.40
2022-08-27T08:24:29.504Z,20.20
2022-08-27T08:26:57.560Z,19.67
2022-08-27T08:29:25.619Z,20.55
2022-08-27T08:31:53.700Z,22.00
2022-08-27T08:34:21.787Z,20.80
2022-08-27T08:36:54.941Z,22.80
2022-08-27T08:39:24.735Z,21.83
2022-08-27T08:41:55.128Z,24.15
2022-08-27T08:44:32.449Z,23.23
2022-08-27T08:47:05.702Z,24.70
2022-08-27T08:49:42.983Z,22.10
2022-08-27T08:52:30.950Z,22.55
2022-08-27T08:55:14.536Z,22.70
2022-08-27T08:57:48.604Z,24.80
2022-08-27T09:00:17.367Z,22.13
2022-08-27T09:02:52.285Z,22.63
2022-08-27T09:05:20.458Z,20.95
2022-08-27T09:08:28.913Z,21.23
2022-08-27T09:11:00.582Z,21.15
2022-08-27T09:13:33.682Z,19.70
2022-08-27T09:16:04.777Z,21.35
2022-08-27T09:18:35.163Z,22.95
2022-08-27T09:21:11.816Z,22.02
2022-08-27T09:23:49.195Z,21.75
2022-08-27T09:26:22.630Z,21.48
2022-08-27T09:29:14.007Z,26.00
2022-08-27T09:31:42.133Z,26.88
2022-08-27T09:34:10.663Z,28.05
2022-08-27T09:36:53.434Z,27.33
2022-08-27T09:39:29.834Z,27.38
2022-08-27T09:41:58.531Z,28.58
2022-08-27T09:44:26.756Z,25.48
2022-08-27T09:46:57.901Z,24.45
2022-08-27T09:49:26.940Z,24.52
2022-08-27T09:51:56.305Z,23.77
2022-08-27T09:54:45.416Z,21.55
2022-08-27T09:57:16.642Z,22.48
2022-08-27T09:59:53.514Z,22.15
2022-08-27T10:02:24.027Z,20.90
2022-08-27T10:04:53.713Z,19.60
2022-08-27T10:07:30.967Z,19.17
2022-08-27T10:10:07.876Z,20.45
2022-08-27T10:12:45.687Z,20.48
2022-08-27T10:15:15.653Z,20.50
2022-08-27T10:17:53.088Z,19.88
2022-08-27T10:20:30.873Z,18.23
2022-08-27T10:23:12.864Z,18.83
2022-08-27T10:25:51.270Z,16.55
2022-08-27T10:28:36.735Z,16.33
2022-08-27T10:31:16.207Z,16.98
2022-08-27T10:33:57.907Z,16.45
2022-08-27T10:36:37.938Z,16.23
2022-08-27T10:39:15.173Z,14.93
2022-08-27T10:41:56.612Z,13.30
2022-08-27T10:44:41.090Z,13.20
2022-08-27T10:47:23.198Z,12.55
2022-08-27T10:49:58.739Z,13.18
2022-08-27T10:52:29.882Z,13.73
2022-08-27T10:55:01.863Z,12.43
2022-08-27T10:58:01.158Z,13.10
2022-08-27T11:00:40.121Z,13.52
2022-08-27T11:03:13.839Z,10.95
2022-08-27T11:05:46.826Z,11.55
2022-08-27T11:08:20.323Z,12.55
2022-08-27T11:10:51.366Z,12.73
2022-08-27T11:13:28.676Z,12.10
2022-08-27T11:15:58.193Z,12.65
2022-08-27T11:18:37.782Z,13.05
2022-08-27T11:21:14.102Z,12.50
2022-08-27T11:23:47.641Z,10.82
2022-08-27T11:26:15.731Z,11.30
2022-08-27T11:28:48.725Z,12.98
2022-08-27T11:31:22.656Z,13.45
2022-08-27T11:33:58.545Z,12.10
2022-08-27T11:36:54.178Z,12.45
2022-08-27T11:39:37.698Z,13.77
2022-08-27T11:42:22.158Z,11.32
2022-08-27T11:44:57.459Z,13.38
2022-08-27T11:47:28.938Z,13.60
2022-08-27T11:49:59.210Z,13.35
2022-08-27T11:52:30.736Z,13.02
2022-08-27T11:55:14.507Z,11.73
2022-08-27T11:57:45.092Z,12.32
2022-08-27T12:00:20.118Z,12.38
2022-08-27T12:02:58.940Z,12.05
2022-08-27T12:05:36.191Z,12.75
2022-08-27T12:08:18.919Z,13.57
2022-08-27T12:11:05.766Z,12.50
2022-08-27T12:13:39.623Z,11.90
2022-08-27T12:16:23.586Z,11.57
2022-08-27T12:19:01.959Z,11.88
2022-08-27T12:21:43.227Z,11.57
2022-08-27T12:24:43.110Z,11.82
2022-08-27T12:27:35.533Z,11.27
2022-08-27T12:30:21.135Z,10.98
2022-08-27T12:32:52.591Z,10.32
2022-08-27T12:35:23.989Z,9.82
2022-08-27T12:37:56.870Z,10.10
2022-08-27T12:40:27.070Z,10.30
2022-08-27T12:43:07.265Z,10.35
2022-08-27T12:45:42.635Z,10.73
2022-08-27T12:48:12.212Z,9.77
2022-08-27T12:50:40.735Z,11.43
2022-08-27T12:53:31.352Z,10.93
2022-08-27T12:56:25.391Z,11.60
2022-08-27T12:58:59.260Z,11.27
2022-08-27T13:01:43.514Z,11.18
2022-08-27T13:04:21.777Z,11.38
2022-08-27T13:06:50.725Z,12.27
2022-08-27T13:09:27.929Z,11.23
2022-08-27T13:11:56.995Z,11.02
2022-08-27T13:14:26.871Z,11.93
2022-08-27T13:16:57.359Z,12.27
2022-08-27T13:19:30.650Z,11.57
2022-08-27T13:22:05.133Z,11.57
2022-08-27T13:24:35.353Z,11.07
2022-08-27T13:27:05.078Z,11.55
2022-08-27T13:29:33.690Z,11.07
2022-08-27T13:32:02.939Z,11.18
2022-08-27T13:34:37.043Z,10.15
2022-08-27T13:37:07.419Z,10.38
2022-08-27T13:39:36.771Z,11.55
2022-08-27T13:42:08.465Z,10.75
2022-08-27T13:44:38.597Z,11.27
2022-08-27T13:47:09.602Z,11.63
2022-08-27T13:49:41.538Z,10.35
2022-08-27T13:52:25.862Z,11.07
2022-08-27T13:55:00.191Z,10.98
2022-08-27T13:57:31.312Z,10.55
2022-08-27T14:00:11.138Z,10.30
2022-08-27T14:02:39.509Z,10.80
2022-08-27T14:05:12.692Z,10.95
2022-08-27T14:07:47.557Z,11.15
2022-08-27T14:10:30.862Z,9.80
2022-08-27T14:13:01.203Z,10.52
2022-08-27T14:15:33.669Z,10.20
2022-08-27T14:18:02.396Z,10.35
2022-08-27T14:20:31.818Z,9.48
2022-08-27T14:23:00.009Z,9.88
2022-08-27T14:25:28.624Z,10.82
2022-08-27T14:27:57.743Z,10.05
2022-08-27T14:30:29.234Z,9.02
2022-08-27T14:32:58.941Z,9.73
2022-08-27T14:35:28.663Z,9.73
2022-08-27T14:40:58.805Z,10.10
2022-08-27T14:43:27.251Z,9.38
2022-08-27T14:45:56.966Z,9.57
2022-08-27T14:48:28.771Z,9.60
2022-08-27T14:50:58.056Z,8.77
2022-08-27T14:53:27.818Z,8.85
2022-08-27T14:55:58.791Z,9.57
2022-08-27T14:58:26.954Z,9.70
2022-08-27T15:00:56.132Z,10.25
2022-08-27T15:03:25.454Z,10.02
2022-08-27T15:05:55.848Z,11.38
2022-08-27T15:08:27.676Z,10.07
2022-08-27T15:10:59.088Z,10.23
2022-08-27T15:13:27.429Z,11.27
2022-08-27T15:15:55.972Z,10.57
2022-08-27T15:18:24.125Z,11.25
2022-08-27T15:20:52.230Z,11.05
2022-08-27T15:23:20.422Z,11.23
2022-08-27T15:25:49.653Z,11.18
2022-08-27T15:28:19.071Z,10.85
2022-08-27T15:30:47.180Z,11.85
2022-08-27T15:33:15.640Z,10.57
2022-08-27T15:35:43.674Z,11.27
2022-08-27T15:38:11.899Z,10.98
2022-08-27T15:40:40.123Z,10.70
2022-08-27T15:43:11.029Z,9.93
2022-08-27T15:45:40.458Z,10.80
2022-08-27T15:48:08.500Z,11.23
2022-08-27T15:50:36.725Z,10.68
2022-08-27T15:53:07.641Z,10.32
2022-08-27T15:55:39.962Z,9.38
2022-08-27T15:58:08.785Z,10.27
2022-08-27T16:00:38.178Z,9.70
2022-08-27T16:03:11.256Z,10.25
2022-08-27T16:05:41.716Z,10.25
2022-08-27T16:08:10.471Z,9.98
2022-08-27T16:10:39.171Z,10.55
2022-08-27T16:13:07.174Z,9.55
2022-08-27T16:15:39.405Z,9.68
2022-08-27T16:18:10.873Z,8.63
2022-08-27T16:20:39.392Z,8.85
2022-08-27T16:23:08.164Z,9.68
2022-08-27T16:25:36.270Z,9.57
2022-08-27T16:28:04.816Z,10.27
2022-08-27T16:30:33.045Z,9.27
2022-08-27T16:33:01.380Z,10.13
2022-08-27T16:35:31.762Z,9.63
2022-08-27T16:37:59.800Z,8.85
2022-08-27T16:40:28.008Z,9.25
2022-08-27T16:42:56.095Z,9.50
2022-08-27T16:45:24.866Z,9.55
2022-08-27T16:48:10.594Z,9.40
2022-08-27T16:50:41.337Z,9.93
2022-08-27T16:53:13.224Z,10.10
2022-08-27T16:55:42.785Z,9.95
2022-08-27T16:58:17.536Z,9.68
2022-08-27T17:00:47.168Z,10.50
2022-08-27T17:03:15.356Z,10.05
2022-08-27T17:05:44.766Z,10.13
2022-08-27T17:08:13.404Z,11.50
2022-08-27T17:10:45.674Z,10.68
2022-08-27T17:13:15.549Z,10.80
2022-08-27T17:15:44.197Z,11.45
2022-08-27T17:18:12.926Z,10.88
2022-08-27T17:20:41.814Z,10.10
2022-08-27T17:23:18.124Z,9.73
2022-08-27T17:25:46.136Z,10.45
2022-08-27T17:28:14.324Z,9.70
2022-08-27T17:30:42.597Z,10.23
2022-08-27T17:33:13.003Z,9.75
2022-08-27T17:35:41.748Z,9.45
2022-08-27T17:38:11.389Z,10.85
2022-08-27T17:40:39.939Z,11.35
2022-08-27T17:43:08.070Z,15.02
2022-08-27T17:45:36.250Z,19.83
2022-08-27T17:48:06.073Z,12.80
2022-08-27T17:50:43.067Z,13.27
2022-08-27T17:53:13.728Z,11.55
2022-08-27T17:55:42.634Z,11.55
2022-08-27T17:58:11.283Z,13.38
2022-08-27T18:00:40.736Z,11.68
2022-08-27T18:03:17.831Z,10.25
2022-08-27T18:05:48.020Z,9.68
2022-08-27T18:08:17.520Z,9.75
2022-08-27T18:10:49.154Z,9.85
2022-08-27T18:13:18.367Z,10.18
2022-08-27T18:15:47.039Z,9.43
2022-08-27T18:18:19.395Z,9.57
2022-08-27T18:20:48.241Z,10.07
2022-08-27T18:23:21.342Z,9.32
2022-08-27T18:25:49.395Z,8.90
2022-08-27T18:28:19.897Z,8.93
2022-08-27T18:30:48.551Z,8.45
2022-08-27T18:33:17.288Z,9.07
2022-08-27T18:35:45.552Z,9.27
2022-08-27T18:38:14.003Z,8.90
2022-08-27T18:40:46.792Z,8.85
2022-08-27T18:43:16.828Z,9.32
2022-08-27T18:45:45.941Z,9.77
2022-08-27T18:48:16.936Z,9.63
2022-08-27T18:50:48.834Z,9.15
2022-08-27T18:53:19.963Z,9.60
2022-08-27T18:55:50.327Z,9.27
2022-08-27T18:58:19.740Z,9.50
2022-08-27T19:00:52.069Z,9.25
2022-08-27T19:03:24.633Z,8.90
2022-08-27T19:05:55.016Z,9.10
2022-08-27T19:08:24.555Z,9.10
2022-08-27T19:10:55.677Z,9.15
2022-08-27T19:13:23.969Z,9.30
2022-08-27T19:15:55.662Z,9.13
2022-08-27T19:18:26.621Z,7.93
2022-08-27T19:20:55.819Z,8.55
2022-08-27T19:23:24.668Z,9.25
2022-08-27T19:25:55.655Z,8.63
2022-08-27T19:28:27.869Z,8.82
2022-08-27T19:30:56.598Z,9.32
2022-08-27T19:33:25.269Z,8.70
2022-08-27T19:35:53.400Z,9.27
2022-08-27T19:38:22.624Z,8.55
2022-08-27T19:40:50.756Z,8.13
2022-08-27T19:43:20.261Z,8.38
2022-08-27T19:45:49.193Z,8.65
2022-08-27T19:48:17.589Z,8.68
2022-08-27T19:50:46.485Z,8.82
2022-08-27T19:53:16.588Z,7.47
2022-08-27T19:55:45.992Z,7.93
2022-08-27T19:58:16.222Z,7.20
2022-08-27T20:00:46.329Z,7.60
2022-08-27T20:03:15.217Z,8.30
2022-08-27T20:05:44.120Z,7.40
2022-08-27T20:08:12.861Z,7.88
2022-08-27T20:10:41.575Z,7.47
2022-08-27T20:13:09.739Z,7.93
2022-08-27T20:15:38.743Z,7.22
2022-08-27T20:18:10.261Z,7.63
2022-08-27T20:20:38.853Z,6.82
2022-08-27T20:23:06.983Z,7.30
2022-08-27T20:25:36.735Z,7.43
2022-08-27T20:28:28.237Z,7.32
2022-08-27T20:30:58.028Z,6.88
2022-08-27T20:33:27.593Z,6.85
2022-08-27T20:35:56.671Z,7.65
2022-08-27T20:40:59.655Z,7.53
2022-08-27T20:43:28.444Z,6.93
2022-08-27T20:45:56.602Z,6.78
2022-08-27T20:48:24.771Z,7.03
2022-08-27T20:50:55.854Z,6.72
2022-08-27T20:53:24.003Z,7.88
2022-08-27T20:55:51.998Z,6.90
2022-08-27T20:58:37.589Z,6.72
2022-08-27T21:01:05.748Z,7.78
2022-08-27T21:03:33.881Z,7.32
2022-08-27T21:06:03.283Z,6.80
2022-08-27T21:08:32.081Z,7.60
2022-08-27T21:11:00.575Z,6.88
2022-08-27T21:13:30.158Z,7.30
2022-08-27T21:15:58.211Z,6.68
2022-08-27T21:18:29.512Z,7.10
2022-08-27T21:20:58.525Z,6.80
2022-08-27T21:23:29.023Z,7.80
2022-08-27T21:25:57.333Z,7.00
2022-08-27T21:28:25.417Z,8.38
2022-08-27T21:30:53.650Z,7.53
2022-08-27T21:33:21.825Z,6.82
2022-08-27T21:35:49.995Z,7.18
2022-08-27T21:38:18.138Z,7.93
2022-08-27T21:40:47.873Z,7.75
2022-08-27T21:43:15.872Z,7.40
2022-08-27T21:45:44.466Z,7.75
2022-08-27T21:48:13.463Z,7.00
2022-08-27T21:50:41.655Z,6.63
2022-08-27T21:53:09.709Z,8.00
2022-08-27T21:55:38.497Z,7.78
2022-08-27T21:58:07.977Z,8.07
2022-08-27T22:00:43.887Z,7.00
2022-08-27T22:03:15.012Z,6.47
2022-08-27T22:05:44.573Z,6.30
2022-08-27T22:08:15.121Z,5.97
2022-08-27T22:10:45.540Z,5.45
2022-08-27T22:13:15.470Z,4.93
2022-08-27T22:15:43.563Z,5.78
2022-08-27T22:18:12.193Z,5.30
2022-08-27T22:20:40.662Z,4.65
2022-08-27T22:23:10.889Z,5.65
2022-08-27T22:25:39.677Z,4.93
2022-08-27T22:28:07.685Z,3.97
2022-08-27T22:30:37.136Z,4.07
2022-08-27T22:33:05.708Z,4.13
2022-08-27T22:35:33.808Z,3.80
2022-08-27T22:38:02.041Z,4.50
2022-08-27T22:40:33.284Z,3.97
2022-08-27T22:43:02.255Z,4.07
2022-08-27T22:45:30.463Z,4.20
2022-08-27T22:47:59.889Z,4.13
2022-08-27T22:50:27.956Z,4.05
2022-08-27T22:52:56.035Z,4.55
2022-08-27T22:55:24.935Z,3.83
2022-08-27T22:57:55.830Z,4.80
2022-08-27T23:00:27.153Z,4.40
2022-08-27T23:02:55.765Z,4.55
2022-08-27T23:05:26.229Z,4.65
2022-08-27T23:07:54.799Z,4.40
2022-08-27T23:10:25.177Z,4.90
2022-08-27T23:12:54.178Z,4.82
2022-08-27T23:15:25.140Z,5.00
2022-08-27T23:17:53.535Z,4.82
2022-08-27T23:20:22.567Z,4.47
2022-08-27T23:22:52.817Z,4.93
2022-08-27T23:25:40.707Z,4.85
2022-08-27T23:28:14.703Z,5.05
2022-08-27T23:30:44.124Z,4.45
2022-08-27T23:33:13.769Z,4.57
2022-08-27T23:35:44.459Z,4.43
2022-08-27T23:38:14.077Z,5.00
2022-08-27T23:40:42.362Z,4.35
2022-08-27T23:43:10.754Z,4.32
2022-08-27T23:45:40.629Z,4.03
2022-08-27T23:48:09.243Z,4.40
2022-08-27T23:50:37.774Z,4.38
2022-08-27T23:53:07.448Z,3.83
2022-08-27T23:55:38.491Z,3.60
2022-08-27T23:58:07.725Z,3.53
